Time;durP1;ratioP1;P1;durP2;ratioP2;P2;SDS_P1;SDS_P2;PMS_P1;PMS_P2;Temp;Humidity;BMP_temperature;BMP_pressure;BME280_temperature;BME280_humidity;BME280_pressure;Samples;Min_cycle;Max_cycle;Signal;HPM_P1;HPM_P2
2023/07/31 00:00:33;;;;;;;7.40;4.40;;;16.40;99.90;;;;;;4796728;29;20197;-90
2023/07/31 00:02:59;;;;;;;8.60;4.77;;;16.30;99.90;;;;;;4796435;29;20186;-90
2023/07/31 00:05:25;;;;;;;7.87;4.40;;;16.40;99.90;;;;;;4812488;29;20522;-89
2023/07/31 00:07:50;;;;;;;7.07;4.50;;;16.40;99.90;;;;;;4796757;29;20245;-89
2023/07/31 00:10:16;;;;;;;7.17;4.03;;;16.40;99.90;;;;;;4812359;29;20238;-89
2023/07/31 00:12:43;;;;;;;6.13;4.10;;;16.40;99.90;;;;;;4796523;29;20277;-89
2023/07/31 00:15:09;;;;;;;9.33;4.93;;;16.30;99.90;;;;;;4812049;29;20272;-90
2023/07/31 00:17:36;;;;;;;6.97;3.53;;;16.40;99.90;;;;;;4796051;29;20445;-90
2023/07/31 00:20:02;;;;;;;7.93;4.20;;;16.30;99.90;;;;;;4812518;29;20443;-90
2023/07/31 00:22:27;;;;;;;6.00;3.93;;;16.40;99.90;;;;;;4796465;29;20435;-88
2023/07/31 00:24:53;;;;;;;8.90;3.57;;;16.50;99.90;;;;;;4812371;29;20524;-90
2023/07/31 00:27:21;;;;;;;9.93;4.17;;;16.40;99.90;;;;;;4796023;29;20316;-90
2023/07/31 00:29:48;;;;;;;13.57;3.63;;;16.40;99.90;;;;;;4813030;29;20537;-89
2023/07/31 00:32:14;;;;;;;11.30;5.30;;;16.40;99.90;;;;;;4813739;29;20450;-89
2023/07/31 00:34:40;;;;;;;7.00;5.00;;;16.40;99.90;;;;;;4814119;29;20419;-89
2023/07/31 00:37:06;;;;;;;5.40;3.90;;;16.50;99.90;;;;;;4796382;29;20194;-88
2023/07/31 00:39:34;;;;;;;8.03;3.67;;;16.50;99.90;;;;;;4796391;29;20268;-89
2023/07/31 00:42:00;;;;;;;10.37;4.57;;;16.50;99.90;;;;;;4811493;29;20407;-89
2023/07/31 00:44:25;;;;;;;6.30;3.53;;;16.50;99.90;;;;;;4793082;29;20420;-88
2023/07/31 00:46:52;;;;;;;6.83;3.70;;;16.50;99.90;;;;;;4793775;29;20256;-87
2023/07/31 00:49:18;;;;;;;7.43;3.67;;;16.50;99.90;;;;;;4809315;29;20324;-87
2023/07/31 00:51:43;;;;;;;9.77;3.50;;;16.50;99.90;;;;;;4809288;29;20980;-84
2023/07/31 00:54:10;;;;;;;12.50;3.73;;;16.50;99.90;;;;;;4809095;29;20423;-87
2023/07/31 00:56:36;;;;;;;6.97;3.33;;;16.50;99.90;;;;;;4809258;29;20201;-84
2023/07/31 00:59:02;;;;;;;8.67;3.23;;;16.60;99.90;;;;;;4793582;29;20403;-85
2023/07/31 01:01:28;;;;;;;6.40;3.50;;;16.60;99.90;;;;;;4809551;29;20436;-86
2023/07/31 01:03:54;;;;;;;5.23;2.63;;;16.60;99.90;;;;;;4810056;29;20205;-86
2023/07/31 01:06:41;;;;;;;5.63;3.00;;;16.60;99.90;;;;;;4778151;29;20206;-87
2023/07/31 01:09:38;;;;;;;8.67;3.90;;;16.60;99.90;;;;;;4809400;29;20891;-86
2023/07/31 01:12:06;;;;;;;9.63;3.00;;;16.60;99.90;;;;;;4809781;29;20394;-86
2023/07/31 01:14:32;;;;;;;7.47;3.60;;;16.70;99.90;;;;;;4793092;29;20827;-87
2023/07/31 01:16:57;;;;;;;5.57;3.40;;;16.70;99.90;;;;;;4809575;29;20424;-86
2023/07/31 01:19:26;;;;;;;10.47;3.17;;;16.70;99.90;;;;;;4808885;29;20640;-87
2023/07/31 01:22:40;;;;;;;5.80;3.47;;;16.60;99.90;;;;;;4808845;29;20210;-86
2023/07/31 01:25:30;;;;;;;6.60;3.33;;;16.70;99.90;;;;;;4749147;30;20477;-85
2023/07/31 01:28:10;;;;;;;8.03;4.00;;;16.60;99.90;;;;;;4753133;30;20478;-85
2023/07/31 01:30:44;;;;;;;8.90;3.60;;;16.60;99.90;;;;;;4797701;29;20428;-85
2023/07/31 01:33:10;;;;;;;8.17;4.10;;;16.70;99.90;;;;;;4808918;29;20416;-86
2023/07/31 01:35:37;;;;;;;5.00;3.30;;;16.60;99.90;;;;;;4807614;29;20522;-86
2023/07/31 01:38:03;;;;;;;5.60;3.23;;;16.60;99.90;;;;;;4809232;29;20466;-86
2023/07/31 01:40:29;;;;;;;6.00;2.70;;;16.60;99.90;;;;;;4808695;29;20419;-85
2023/07/31 01:42:54;;;;;;;4.60;2.90;;;16.80;99.90;;;;;;4807845;29;20428;-85
2023/07/31 01:45:20;;;;;;;10.43;3.60;;;16.70;99.90;;;;;;4808847;29;20190;-84
2023/07/31 01:47:45;;;;;;;5.73;3.57;;;16.70;99.90;;;;;;4808282;29;20318;-83
2023/07/31 01:50:11;;;;;;;6.13;3.40;;;16.70;99.90;;;;;;4808268;29;20216;-86
2023/07/31 01:52:37;;;;;;;4.60;2.63;;;16.80;99.90;;;;;;4808292;29;20560;-85
2023/07/31 01:55:03;;;;;;;5.20;3.00;;;16.80;99.90;;;;;;4808406;29;20191;-85
2023/07/31 01:57:28;;;;;;;6.20;3.00;;;16.80;99.90;;;;;;4808611;29;20206;-84
2023/07/31 01:59:54;;;;;;;8.23;3.27;;;16.80;99.90;;;;;;4808422;29;20572;-84
2023/07/31 02:02:20;;;;;;;8.10;3.50;;;16.90;99.90;;;;;;4807974;29;20197;-84
2023/07/31 02:04:46;;;;;;;9.17;3.00;;;16.90;99.90;;;;;;4808488;29;20598;-84
2023/07/31 02:07:12;;;;;;;11.60;3.83;;;16.90;99.90;;;;;;4807937;29;20446;-86
2023/07/31 02:09:37;;;;;;;5.27;3.10;;;16.90;99.90;;;;;;4808272;29;20431;-85
2023/07/31 02:12:03;;;;;;;5.67;3.57;;;16.90;99.90;;;;;;4808660;29;20198;-85
2023/07/31 02:14:29;;;;;;;10.93;3.30;;;17.00;99.90;;;;;;4807977;29;20198;-85
2023/07/31 02:16:54;;;;;;;4.37;2.97;;;16.90;99.90;;;;;;4808382;29;20198;-85
2023/07/31 02:19:20;;;;;;;8.90;3.20;;;17.00;99.90;;;;;;4807766;29;20186;-85
2023/07/31 02:21:45;;;;;;;6.10;3.70;;;17.00;99.90;;;;;;4808094;29;20206;-84
2023/07/31 02:24:11;;;;;;;6.63;3.33;;;16.90;99.90;;;;;;4807929;29;20241;-85
2023/07/31 02:26:37;;;;;;;8.23;3.63;;;16.90;99.90;;;;;;4808191;29;20234;-84
2023/07/31 02:29:02;;;;;;;8.10;3.30;;;16.90;99.90;;;;;;4808089;29;20670;-84
2023/07/31 02:31:28;;;;;;;10.67;3.80;;;16.90;99.90;;;;;;4807791;29;20182;-84
2023/07/31 02:33:53;;;;;;;6.33;3.30;;;17.00;99.90;;;;;;4808026;29;20187;-83
2023/07/31 02:36:19;;;;;;;8.43;3.13;;;17.00;99.90;;;;;;4807490;29;20265;-84
2023/07/31 02:38:44;;;;;;;8.07;3.70;;;17.00;99.90;;;;;;4808076;29;20277;-84
2023/07/31 02:41:10;;;;;;;7.07;3.67;;;17.00;99.90;;;;;;4791981;29;20193;-84
2023/07/31 02:43:36;;;;;;;7.73;3.60;;;17.00;99.90;;;;;;4807781;29;20194;-84
2023/07/31 02:46:01;;;;;;;10.90;4.70;;;17.10;99.90;;;;;;4807480;29;20736;-84
2023/07/31 02:48:27;;;;;;;6.63;3.60;;;17.10;99.90;;;;;;4807244;29;20222;-84
2023/07/31 02:50:53;;;;;;;10.17;4.20;;;17.00;99.90;;;;;;4807711;29;20222;-84
2023/07/31 02:53:19;;;;;;;6.87;3.60;;;17.10;99.90;;;;;;4807065;29;20651;-85
2023/07/31 02:55:44;;;;;;;7.57;4.00;;;17.10;99.90;;;;;;4807506;29;20432;-84
2023/07/31 02:58:10;;;;;;;6.63;3.70;;;17.10;99.90;;;;;;4807686;29;20673;-84
2023/07/31 03:00:35;;;;;;;10.97;4.00;;;17.20;99.90;;;;;;4806950;29;20224;-84
2023/07/31 03:03:01;;;;;;;9.50;3.90;;;17.20;99.90;;;;;;4791125;29;20214;-83
2023/07/31 03:05:27;;;;;;;6.90;3.80;;;17.20;99.90;;;;;;4806476;29;20281;-84
2023/07/31 03:07:52;;;;;;;9.43;3.60;;;17.20;99.90;;;;;;4790990;29;20217;-84
2023/07/31 03:10:18;;;;;;;7.47;3.67;;;17.20;99.90;;;;;;4807273;29;20563;-84
2023/07/31 03:12:48;;;;;;;5.00;3.47;;;17.20;99.90;;;;;;4791404;29;20213;-84
2023/07/31 03:15:13;;;;;;;12.23;4.70;;;17.20;99.90;;;;;;4807347;29;20276;-84
2023/07/31 03:17:39;;;;;;;5.87;3.37;;;17.20;99.90;;;;;;4790619;29;20446;-84
2023/07/31 03:20:05;;;;;;;6.77;3.80;;;17.20;99.90;;;;;;4807268;29;20218;-83
2023/07/31 03:22:30;;;;;;;4.17;3.23;;;17.20;99.90;;;;;;4806958;29;20667;-84
2023/07/31 03:24:56;;;;;;;5.77;3.27;;;17.30;99.90;;;;;;4806633;29;20537;-84
2023/07/31 03:27:22;;;;;;;10.53;4.30;;;17.30;99.90;;;;;;4807132;29;20238;-81
2023/07/31 03:29:51;;;;;;;7.90;4.10;;;17.30;99.90;;;;;;4806978;29;20972;-84
2023/07/31 03:32:16;;;;;;;7.73;3.80;;;17.30;99.90;;;;;;4807553;29;20235;-83
2023/07/31 03:34:42;;;;;;;8.30;4.10;;;17.20;99.90;;;;;;4806962;29;20825;-83
2023/07/31 03:37:09;;;;;;;6.20;3.53;;;17.10;99.90;;;;;;4806706;29;20255;-84
2023/07/31 03:39:35;;;;;;;8.37;3.90;;;17.10;99.90;;;;;;4806726;29;20194;-84
2023/07/31 03:42:00;;;;;;;7.90;4.33;;;17.10;99.90;;;;;;4807078;29;20431;-84
2023/07/31 03:44:26;;;;;;;9.13;4.73;;;17.10;99.90;;;;;;4806851;29;20846;-84
2023/07/31 03:46:52;;;;;;;5.00;4.10;;;17.20;99.90;;;;;;4807133;29;20264;-83
2023/07/31 03:49:17;;;;;;;13.27;4.87;;;17.10;99.90;;;;;;4807161;29;20269;-87
2023/07/31 03:51:43;;;;;;;8.97;4.57;;;17.20;99.90;;;;;;4806776;29;20194;-84
2023/07/31 03:54:09;;;;;;;17.97;4.80;;;17.10;99.90;;;;;;4790882;29;20194;-85
2023/07/31 03:56:34;;;;;;;7.60;4.37;;;17.10;99.90;;;;;;4806448;29;20326;-86
2023/07/31 03:59:00;;;;;;;9.43;4.57;;;17.00;99.90;;;;;;4807078;29;20198;-85
2023/07/31 04:01:26;;;;;;;10.10;4.57;;;17.00;99.90;;;;;;4790814;29;20189;-86
2023/07/31 04:03:51;;;;;;;5.63;3.97;;;16.90;99.90;;;;;;4806725;29;20394;-85
2023/07/31 04:06:20;;;;;;;7.57;4.07;;;16.80;99.90;;;;;;4806634;29;20424;-85
2023/07/31 04:08:46;;;;;;;6.23;4.10;;;16.90;99.90;;;;;;4806936;29;20191;-85
2023/07/31 04:11:12;;;;;;;6.03;4.13;;;16.80;99.90;;;;;;4806901;29;20492;-86
2023/07/31 04:13:38;;;;;;;6.03;4.37;;;16.80;99.90;;;;;;4790407;29;20254;-85
2023/07/31 04:16:04;;;;;;;9.57;4.90;;;16.80;99.90;;;;;;4807007;29;20909;-85
2023/07/31 04:18:30;;;;;;;8.67;4.73;;;16.80;99.90;;;;;;4808331;29;20935;-85
2023/07/31 04:20:58;;;;;;;9.33;5.17;;;16.80;99.90;;;;;;4810230;29;20550;-85
2023/07/31 04:23:24;;;;;;;8.77;4.83;;;16.80;99.90;;;;;;4809854;29;20415;-86
2023/07/31 04:25:50;;;;;;;6.13;4.97;;;16.90;99.90;;;;;;4810273;29;20491;-85
2023/07/31 04:28:15;;;;;;;7.73;3.87;;;16.90;99.90;;;;;;4809736;29;20955;-85
2023/07/31 04:30:41;;;;;;;8.87;5.10;;;16.90;99.90;;;;;;4810073;29;20197;-85
2023/07/31 04:33:06;;;;;;;7.60;4.60;;;16.90;99.90;;;;;;4809791;29;20194;-84
2023/07/31 04:35:32;;;;;;;8.13;4.73;;;17.00;99.90;;;;;;4809559;29;20187;-84
2023/07/31 04:37:57;;;;;;;9.50;4.20;;;17.10;99.90;;;;;;4793645;29;20194;-85
2023/07/31 04:40:23;;;;;;;6.80;3.87;;;17.10;99.90;;;;;;4810061;29;20198;-84
2023/07/31 04:42:49;;;;;;;7.90;4.37;;;17.20;99.90;;;;;;4810130;29;20670;-84
2023/07/31 04:45:15;;;;;;;7.43;4.23;;;17.20;99.90;;;;;;4793334;29;20202;-84
2023/07/31 04:47:40;;;;;;;6.03;4.33;;;17.30;99.90;;;;;;4809451;29;20230;-84
2023/07/31 04:50:06;;;;;;;9.20;4.50;;;17.40;99.90;;;;;;4809628;29;20194;-84
2023/07/31 04:52:32;;;;;;;7.43;4.10;;;17.40;99.90;;;;;;4809258;29;20271;-84
2023/07/31 04:54:57;;;;;;;8.90;4.30;;;17.50;99.90;;;;;;4809319;29;20452;-84
2023/07/31 04:57:23;;;;;;;5.77;3.90;;;17.40;99.90;;;;;;4808865;29;20198;-85
2023/07/31 04:59:48;;;;;;;6.80;4.17;;;17.50;99.90;;;;;;4778475;29;20191;-84
2023/07/31 05:02:15;;;;;;;7.83;3.80;;;17.40;99.90;;;;;;4809463;29;20652;-84
2023/07/31 05:04:40;;;;;;;9.33;4.67;;;17.50;99.90;;;;;;4809221;29;20198;-84
2023/07/31 05:07:06;;;;;;;8.47;5.17;;;17.60;99.90;;;;;;4809417;29;20479;-84
2023/07/31 05:09:31;;;;;;;4.40;4.00;;;17.60;99.90;;;;;;4792780;29;20218;-84
2023/07/31 05:11:57;;;;;;;7.60;4.80;;;17.60;99.90;;;;;;4809230;29;20701;-84
2023/07/31 05:14:23;;;;;;;5.40;3.93;;;17.70;99.90;;;;;;4809142;29;20523;-85
2023/07/31 05:16:48;;;;;;;6.40;3.77;;;17.70;99.90;;;;;;4809069;29;20193;-84
2023/07/31 05:19:14;;;;;;;5.70;3.90;;;17.70;99.90;;;;;;4809212;29;20227;-84
2023/07/31 05:21:40;;;;;;;10.07;3.90;;;17.70;99.90;;;;;;4808712;29;20377;-84
2023/07/31 05:24:05;;;;;;;4.40;3.57;;;17.80;99.90;;;;;;4808918;29;20237;-84
2023/07/31 05:26:31;;;;;;;10.10;3.33;;;17.90;99.90;;;;;;4809091;29;20435;-85
2023/07/31 05:28:58;;;;;;;5.57;3.80;;;17.90;99.90;;;;;;4792311;29;20186;-85
2023/07/31 05:31:24;;;;;;;5.50;3.20;;;17.90;99.90;;;;;;4809195;29;20644;-86
2023/07/31 05:33:50;;;;;;;6.63;3.97;;;17.80;99.90;;;;;;4808694;29;20856;-84
2023/07/31 05:36:16;;;;;;;5.93;3.87;;;17.80;99.90;;;;;;4809025;29;20482;-84
2023/07/31 05:38:44;;;;;;;5.30;3.77;;;17.80;99.90;;;;;;4808769;29;20194;-84
2023/07/31 05:41:09;;;;;;;4.97;3.37;;;17.80;99.90;;;;;;4809260;29;20423;-85
2023/07/31 05:43:35;;;;;;;5.60;3.20;;;17.80;99.90;;;;;;4808345;29;20402;-84
2023/07/31 05:46:01;;;;;;;7.67;3.70;;;17.80;99.90;;;;;;4792535;29;20197;-84
2023/07/31 05:48:27;;;;;;;7.20;3.20;;;17.80;99.90;;;;;;4807869;29;20218;-83
2023/07/31 05:50:52;;;;;;;5.63;3.60;;;17.80;99.90;;;;;;4808403;29;20936;-84
2023/07/31 05:53:18;;;;;;;3.57;3.17;;;17.80;99.90;;;;;;4808484;29;20683;-84
2023/07/31 05:55:43;;;;;;;5.73;3.50;;;17.70;99.90;;;;;;4808402;29;20530;-82
2023/07/31 05:58:09;;;;;;;5.13;3.40;;;17.80;99.90;;;;;;4808390;29;20190;-83
2023/07/31 06:00:35;;;;;;;5.37;4.00;;;17.70;99.90;;;;;;4807720;29;20198;-83
2023/07/31 06:03:00;;;;;;;5.00;3.50;;;17.70;99.90;;;;;;4808405;29;20194;-84
2023/07/31 06:05:28;;;;;;;8.83;4.40;;;17.70;99.90;;;;;;4792026;29;20545;-90
2023/07/31 06:07:53;;;;;;;6.43;3.70;;;17.50;99.90;;;;;;4792355;29;20222;-88
2023/07/31 06:10:19;;;;;;;4.20;2.80;;;17.40;99.90;;;;;;4791816;29;20424;-88
2023/07/31 06:12:45;;;;;;;7.70;4.00;;;17.30;99.90;;;;;;4776780;29;20186;-87
2023/07/31 06:15:11;;;;;;;8.63;3.60;;;17.20;99.90;;;;;;4808336;29;20194;-87
2023/07/31 06:17:36;;;;;;;7.40;3.80;;;17.20;99.90;;;;;;4791672;29;20194;-86
2023/07/31 06:20:06;;;;;;;8.93;4.17;;;17.20;99.90;;;;;;4807920;29;20507;-87
2023/07/31 06:22:32;;;;;;;6.00;3.73;;;17.20;99.90;;;;;;4791542;29;20191;-87
2023/07/31 06:24:58;;;;;;;5.67;3.93;;;17.20;99.90;;;;;;4807475;29;20575;-87
2023/07/31 06:27:24;;;;;;;9.50;3.73;;;17.20;99.90;;;;;;4807339;29;20492;-87
2023/07/31 06:29:49;;;;;;;9.67;4.53;;;17.20;99.90;;;;;;4807628;29;20432;-87
2023/07/31 06:32:15;;;;;;;7.23;4.30;;;17.20;99.90;;;;;;4807744;29;20221;-86
2023/07/31 06:34:40;;;;;;;6.43;4.23;;;17.20;99.90;;;;;;4791156;29;20201;-87
2023/07/31 06:37:06;;;;;;;6.40;4.60;;;17.30;99.90;;;;;;4791659;29;20186;-87
2023/07/31 06:39:31;;;;;;;8.50;4.07;;;17.20;99.90;;;;;;4807551;29;20182;-86
2023/07/31 06:41:57;;;;;;;9.17;4.10;;;17.30;99.90;;;;;;4806836;29;20197;-89
2023/07/31 06:44:23;;;;;;;6.33;4.07;;;17.30;99.90;;;;;;4776482;29;20703;-88
2023/07/31 06:46:48;;;;;;;7.20;4.37;;;17.40;99.90;;;;;;4806983;29;20221;-89
2023/07/31 06:49:17;;;;;;;7.27;3.70;;;17.50;99.90;;;;;;4791015;29;20281;-88
2023/07/31 06:51:43;;;;;;;6.90;3.70;;;17.60;99.90;;;;;;4791021;29;20218;-88
2023/07/31 06:54:09;;;;;;;6.60;3.60;;;17.70;99.90;;;;;;4791049;29;20464;-88
2023/07/31 06:56:35;;;;;;;4.83;3.70;;;17.80;99.90;;;;;;4806841;29;20858;-88
2023/07/31 06:59:01;;;;;;;4.10;3.33;;;17.80;99.90;;;;;;4807053;29;20323;-88
2023/07/31 07:01:27;;;;;;;7.93;3.90;;;18.00;99.90;;;;;;4790975;29;20659;-88
2023/07/31 07:03:53;;;;;;;7.90;4.03;;;18.00;99.90;;;;;;4776105;29;20405;-88
2023/07/31 07:06:19;;;;;;;5.57;3.50;;;18.10;99.90;;;;;;4790804;29;20399;-87
2023/07/31 07:08:44;;;;;;;4.73;3.67;;;18.10;99.90;;;;;;4806404;29;20555;-87
2023/07/31 07:11:10;;;;;;;10.03;3.70;;;18.20;99.90;;;;;;4806636;29;20194;-87
2023/07/31 07:13:36;;;;;;;5.43;3.17;;;18.30;99.90;;;;;;4790684;29;20190;-87
2023/07/31 07:16:01;;;;;;;5.10;3.37;;;18.30;99.90;;;;;;4807247;29;20250;-87
2023/07/31 07:18:27;;;;;;;6.57;3.03;;;18.30;99.90;;;;;;4807112;29;20265;-87
2023/07/31 07:20:54;;;;;;;6.10;3.37;;;18.30;99.90;;;;;;4775311;29;20247;-87
2023/07/31 07:23:20;;;;;;;5.63;3.50;;;18.30;99.90;;;;;;4806749;29;20598;-87
2023/07/31 07:25:47;;;;;;;6.53;3.63;;;18.20;99.90;;;;;;4806369;29;20490;-88
2023/07/31 07:28:13;;;;;;;6.73;3.57;;;18.20;99.90;;;;;;4790403;29;20489;-88
2023/07/31 07:30:39;;;;;;;8.90;3.67;;;18.10;99.90;;;;;;4789986;29;20489;-88
2023/07/31 07:33:05;;;;;;;5.60;3.00;;;18.00;99.90;;;;;;4806872;29;20213;-87
2023/07/31 07:35:33;;;;;;;6.03;3.00;;;17.90;99.90;;;;;;4790556;29;20406;-89
2023/07/31 07:37:59;;;;;;;4.07;2.63;;;17.90;99.90;;;;;;4806673;29;20781;-87
2023/07/31 07:40:24;;;;;;;5.37;3.20;;;17.80;99.90;;;;;;4775559;29;20435;-89
2023/07/31 07:42:50;;;;;;;7.70;3.70;;;17.80;99.90;;;;;;4806266;29;20178;-90
2023/07/31 07:45:16;;;;;;;5.23;3.50;;;17.70;99.90;;;;;;4806734;29;20238;-91
2023/07/31 07:47:42;;;;;;;10.27;3.20;;;17.70;99.90;;;;;;4775628;29;20536;-93
2023/07/31 07:50:08;;;;;;;6.57;3.20;;;17.60;99.90;;;;;;4790927;29;20189;-92
2023/07/31 07:52:34;;;;;;;4.63;2.63;;;17.40;99.90;;;;;;4808747;29;20420;-92
2023/07/31 07:55:00;;;;;;;5.50;2.90;;;17.40;99.90;;;;;;4794512;29;20520;-92
2023/07/31 07:57:26;;;;;;;10.57;3.33;;;17.30;99.90;;;;;;4810213;29;20193;-92
2023/07/31 07:59:51;;;;;;;6.40;3.67;;;17.20;99.90;;;;;;4794386;29;20461;-92
2023/07/31 08:02:17;;;;;;;3.60;3.00;;;17.20;99.90;;;;;;4810261;29;20386;-92
2023/07/31 08:04:47;;;;;;;6.67;3.70;;;17.20;99.90;;;;;;4794362;29;20186;-92
2023/07/31 08:07:16;;;;;;;5.87;3.27;;;17.30;99.90;;;;;;4814088;29;20604;-92
2023/07/31 08:09:42;;;;;;;6.27;3.63;;;17.20;99.90;;;;;;4794492;29;20467;-93
2023/07/31 08:12:07;;;;;;;9.43;3.50;;;17.20;99.90;;;;;;4794436;29;20440;-92
2023/07/31 08:14:36;;;;;;;6.60;3.50;;;17.30;99.90;;;;;;4793962;29;20241;-92
2023/07/31 08:17:02;;;;;;;5.13;3.60;;;17.20;99.90;;;;;;4794094;29;20561;-91
2023/07/31 08:19:30;;;;;;;7.37;3.10;;;17.30;99.90;;;;;;4810570;29;20426;-91
2023/07/31 08:21:56;;;;;;;9.13;3.60;;;17.40;99.90;;;;;;4794004;29;20435;-91
2023/07/31 08:24:21;;;;;;;7.77;3.63;;;17.40;99.90;;;;;;4799425;29;20827;-91
2023/07/31 08:26:49;;;;;;;6.13;2.90;;;17.40;99.90;;;;;;4810200;29;20237;-91
2023/07/31 08:29:15;;;;;;;6.23;3.27;;;17.60;99.90;;;;;;4810385;29;20525;-90
2023/07/31 08:31:41;;;;;;;4.17;3.00;;;17.70;99.90;;;;;;4811073;29;20487;-92
2023/07/31 08:34:06;;;;;;;3.10;2.50;;;17.80;99.90;;;;;;4809177;29;20185;-93
2023/07/31 08:36:32;;;;;;;3.90;3.10;;;17.90;99.90;;;;;;4810387;29;20214;-91
2023/07/31 08:38:57;;;;;;;4.00;2.60;;;17.80;99.90;;;;;;4809722;29;20194;-91
2023/07/31 08:41:27;;;;;;;4.70;3.47;;;17.90;99.90;;;;;;4809678;29;20261;-90
2023/07/31 08:43:53;;;;;;;4.43;2.93;;;18.00;99.90;;;;;;4810083;29;20186;-92
2023/07/31 08:46:21;;;;;;;2.80;2.40;;;18.00;99.90;;;;;;4810098;29;20415;-90
2023/07/31 08:48:47;;;;;;;4.20;2.80;;;18.00;99.90;;;;;;4814579;29;20483;-91
2023/07/31 08:51:15;;;;;;;4.60;3.00;;;18.10;99.90;;;;;;4809965;29;20412;-91
2023/07/31 08:53:40;;;;;;;6.50;2.70;;;18.10;99.90;;;;;;4809252;29;20905;-90
2023/07/31 08:56:07;;;;;;;4.60;2.57;;;18.00;99.90;;;;;;4808176;29;20539;-88
2023/07/31 08:58:34;;;;;;;6.20;2.33;;;18.00;99.90;;;;;;4810675;29;20190;-91
2023/07/31 09:01:03;;;;;;;2.33;2.07;;;18.00;99.90;;;;;;4809276;29;20436;-92
2023/07/31 09:03:32;;;;;;;5.50;2.60;;;17.90;99.90;;;;;;4807169;29;20965;-90
2023/07/31 09:05:59;;;;;;;3.47;2.30;;;17.80;99.90;;;;;;4809668;29;20443;-89
2023/07/31 09:08:29;;;;;;;2.40;2.20;;;17.80;99.90;;;;;;4808171;29;20894;-90
2023/07/31 09:11:05;;;;;;;2.70;1.90;;;17.80;99.90;;;;;;4809880;29;20431;-91
2023/07/31 09:13:31;;;;;;;5.23;2.80;;;17.70;99.90;;;;;;4809235;29;20435;-92
2023/07/31 09:15:57;;;;;;;5.33;2.83;;;17.70;99.90;;;;;;4810023;29;20459;-90
2023/07/31 09:18:23;;;;;;;3.63;2.80;;;17.80;99.90;;;;;;4809151;29;20527;-90
2023/07/31 09:21:03;;;;;;;3.13;2.13;;;17.80;99.90;;;;;;4809649;29;20436;-93
2023/07/31 09:23:42;;;;;;;4.17;2.87;;;18.00;99.90;;;;;;4809824;29;20188;-92
2023/07/31 09:26:07;;;;;;;5.27;3.27;;;18.20;99.90;;;;;;4793127;29;20422;-91
2023/07/31 09:28:33;;;;;;;4.13;2.53;;;18.40;99.90;;;;;;4793308;29;20465;-93
2023/07/31 09:30:58;;;;;;;3.20;2.53;;;18.50;99.90;;;;;;4808778;29;20187;-89
2023/07/31 09:33:24;;;;;;;4.80;2.43;;;18.60;99.90;;;;;;4808637;29;20239;-91
2023/07/31 09:35:50;;;;;;;4.30;2.67;;;18.70;99.90;;;;;;4808571;29;20239;-90
2023/07/31 09:38:16;;;;;;;6.90;3.77;;;18.80;99.90;;;;;;4808464;29;20557;-90
2023/07/31 09:40:44;;;;;;;4.60;3.07;;;18.90;99.90;;;;;;4791977;29;20201;-90
2023/07/31 09:43:11;;;;;;;3.60;2.50;;;19.00;99.90;;;;;;4792395;29;20437;-89
2023/07/31 09:45:39;;;;;;;4.77;2.70;;;19.10;99.90;;;;;;4808449;29;20427;-90
2023/07/31 09:48:11;;;;;;;5.00;2.43;;;19.20;99.90;;;;;;4808265;29;20449;-87
2023/07/31 09:50:39;;;;;;;3.60;2.13;;;19.30;99.90;;;;;;4808389;29;20798;-88
2023/07/31 09:53:05;;;;;;;4.10;2.27;;;19.30;99.90;;;;;;4808307;29;20424;-87
2023/07/31 09:55:34;;;;;;;8.20;2.73;;;19.40;99.90;;;;;;4808370;29;20424;-85
2023/07/31 09:58:04;;;;;;;4.60;2.30;;;19.50;99.90;;;;;;4808021;29;21066;-87
2023/07/31 10:00:31;;;;;;;9.13;2.50;;;19.50;99.90;;;;;;4808335;29;20501;-89
2023/07/31 10:03:00;;;;;;;7.10;2.20;;;19.50;99.90;;;;;;4792037;29;20426;-86
2023/07/31 10:05:33;;;;;;;3.30;2.40;;;19.50;99.90;;;;;;4792061;29;20432;-89
2023/07/31 10:07:59;;;;;;;7.13;2.33;;;19.70;99.90;;;;;;4808265;29;20466;-91
2023/07/31 10:10:27;;;;;;;4.33;2.57;;;19.70;99.90;;;;;;4808286;29;20493;-90
2023/07/31 10:12:53;;;;;;;3.60;1.87;;;19.70;99.90;;;;;;4807784;29;20420;-89
2023/07/31 10:15:19;;;;;;;5.20;2.20;;;19.70;99.90;;;;;;4807906;29;20478;-90
2023/07/31 10:17:49;;;;;;;2.87;2.00;;;19.60;99.90;;;;;;4791373;29;20428;-86
2023/07/31 10:20:16;;;;;;;3.07;2.00;;;19.70;99.90;;;;;;4808758;29;20812;-87
2023/07/31 10:22:43;;;;;;;6.20;2.50;;;19.70;99.90;;;;;;4807663;29;20424;-89
2023/07/31 10:25:09;;;;;;;3.83;2.67;;;19.70;99.90;;;;;;4807375;29;20456;-89
2023/07/31 10:27:39;;;;;;;6.73;1.93;;;19.70;99.90;;;;;;4807542;29;20536;-87
2023/07/31 10:30:08;;;;;;;5.03;2.23;;;19.70;99.90;;;;;;4807621;29;20487;-87
2023/07/31 10:32:34;;;;;;;7.70;2.17;;;19.80;99.90;;;;;;4807692;29;20426;-88
2023/07/31 10:35:03;;;;;;;3.23;2.00;;;19.90;99.90;;;;;;4807477;29;20438;-87
2023/07/31 10:37:36;;;;;;;4.60;1.93;;;19.90;99.90;;;;;;4791292;29;20479;-88
2023/07/31 10:40:10;;;;;;;2.00;1.30;;;19.90;99.90;;;;;;4791068;29;20423;-89
2023/07/31 10:42:39;;;;;;;4.90;2.60;;;19.90;99.90;;;;;;4808211;29;20420;-87
2023/07/31 10:45:10;;;;;;;3.10;1.80;;;19.90;99.90;;;;;;4811678;29;20394;-88
2023/07/31 10:48:02;;;;;;;2.30;1.60;;;19.90;99.90;;;;;;4807605;29;20647;-87
2023/07/31 10:50:29;;;;;;;2.50;1.60;;;19.90;99.90;;;;;;4807435;29;20383;-88
2023/07/31 10:53:07;;;;;;;2.90;1.53;;;19.80;99.90;;;;;;4790768;29;20428;-88
2023/07/31 10:55:43;;;;;;;4.50;1.87;;;19.60;99.90;;;;;;4807469;29;20386;-87
2023/07/31 10:58:14;;;;;;;3.93;1.40;;;19.50;99.90;;;;;;4807114;29;20431;-88
2023/07/31 11:00:44;;;;;;;1.37;1.20;;;19.40;99.90;;;;;;4791214;29;20514;-84
2023/07/31 11:03:13;;;;;;;1.13;0.90;;;19.40;99.90;;;;;;4807142;29;20401;-83
2023/07/31 11:05:50;;;;;;;2.10;1.00;;;19.50;99.90;;;;;;4806954;29;20502;-84
2023/07/31 11:08:23;;;;;;;1.20;0.90;;;19.50;99.90;;;;;;4777256;29;20495;-82
2023/07/31 11:11:04;;;;;;;1.00;0.90;;;19.70;99.90;;;;;;4806935;29;20405;-86
2023/07/31 11:13:30;;;;;;;3.00;0.80;;;19.90;99.90;;;;;;4806979;29;20391;-86
2023/07/31 11:15:56;;;;;;;1.77;0.90;;;20.20;99.90;;;;;;4807114;29;20428;-86
2023/07/31 11:18:21;;;;;;;2.90;1.00;;;20.50;99.90;;;;;;4791366;29;20425;-86
2023/07/31 11:20:47;;;;;;;1.00;0.90;;;20.50;99.90;;;;;;4806855;29;20194;-86
2023/07/31 11:23:15;;;;;;;2.13;0.80;;;20.70;99.90;;;;;;4806882;29;20189;-88
2023/07/31 11:25:41;;;;;;;1.40;0.73;;;20.80;99.90;;;;;;4807659;29;20423;-86
2023/07/31 11:28:10;;;;;;;1.20;0.80;;;20.50;99.90;;;;;;4790274;29;20479;-84
2023/07/31 11:30:36;;;;;;;1.27;0.73;;;20.50;99.90;;;;;;4807468;29;20830;-85
2023/07/31 11:33:03;;;;;;;2.10;0.90;;;20.60;99.90;;;;;;4807169;29;20406;-83
2023/07/31 11:35:41;;;;;;;1.10;0.97;;;20.60;99.90;;;;;;4807416;29;20183;-84
2023/07/31 11:38:08;;;;;;;1.10;0.70;;;20.80;99.90;;;;;;4807998;29;20422;-84
2023/07/31 11:40:41;;;;;;;1.10;0.90;;;20.90;99.90;;;;;;4807267;29;20394;-84
2023/07/31 11:43:07;;;;;;;1.67;0.80;;;21.10;99.90;;;;;;4807672;29;20383;-82
2023/07/31 11:45:35;;;;;;;1.10;0.90;;;21.40;99.90;;;;;;4807238;29;20390;-85
2023/07/31 11:48:01;;;;;;;1.13;0.90;;;21.50;99.90;;;;;;4806325;29;20234;-86
2023/07/31 11:50:26;;;;;;;0.97;0.83;;;21.40;99.90;;;;;;4807274;29;20430;-83
2023/07/31 11:52:59;;;;;;;1.40;1.30;;;21.20;99.90;;;;;;4806669;29;20402;-85
2023/07/31 11:55:26;;;;;;;1.00;0.90;;;21.00;99.90;;;;;;4806981;29;20640;-87
2023/07/31 11:57:53;;;;;;;1.47;1.20;;;20.90;99.90;;;;;;4806871;29;20427;-85
2023/07/31 12:00:19;;;;;;;1.70;1.47;;;20.80;99.90;;;;;;4806729;29;20405;-85
2023/07/31 12:02:45;;;;;;;4.63;1.33;;;20.70;99.90;;;;;;4807311;29;20418;-85
2023/07/31 12:05:14;;;;;;;2.87;1.30;;;20.70;99.90;;;;;;4806744;29;20914;-84
2023/07/31 12:07:47;;;;;;;4.07;1.50;;;20.70;99.90;;;;;;4806851;29;20229;-84
2023/07/31 12:10:27;;;;;;;2.23;1.30;;;20.70;99.90;;;;;;4807175;29;20420;-81
2023/07/31 12:12:58;;;;;;;2.00;1.50;;;20.70;99.90;;;;;;4806488;29;20398;-84
2023/07/31 12:15:39;;;;;;;2.47;1.30;;;20.60;99.90;;;;;;4806913;29;20406;-82
2023/07/31 12:18:07;;;;;;;2.27;1.70;;;20.50;99.90;;;;;;4806446;29;20832;-84
2023/07/31 12:20:33;;;;;;;3.93;2.00;;;20.50;99.90;;;;;;4807220;29;20472;-84
2023/07/31 12:23:00;;;;;;;2.40;1.97;;;20.40;99.90;;;;;;4806607;29;20507;-84
2023/07/31 12:25:30;;;;;;;1.93;1.50;;;20.30;99.90;;;;;;4806708;29;20950;-83
2023/07/31 12:27:56;;;;;;;3.23;1.83;;;20.30;99.90;;;;;;4806573;29;20457;-83
2023/07/31 12:30:34;;;;;;;2.23;1.97;;;20.30;99.90;;;;;;4790591;29;20398;-83
2023/07/31 12:33:05;;;;;;;2.70;2.13;;;20.30;99.90;;;;;;4806523;29;20215;-85
2023/07/31 12:35:38;;;;;;;1.90;1.70;;;20.30;99.90;;;;;;4806822;29;20409;-84
2023/07/31 12:38:04;;;;;;;1.97;1.73;;;20.30;99.90;;;;;;4806762;29;20442;-83
2023/07/31 12:40:30;;;;;;;2.07;1.87;;;20.30;99.90;;;;;;5083056;24;20484;-84
2023/07/31 12:42:55;;;;;;;2.27;2.07;;;20.40;99.90;;;;;;4833286;29;20417;-82
2023/07/31 12:45:21;;;;;;;3.00;1.87;;;20.40;99.90;;;;;;4814767;29;20212;-88